Time;durP1;ratioP1;P1;durP2;ratioP2;P2;SDS_P1;SDS_P2;PMS_P1;PMS_P2;Temp;Humidity;BMP_temperature;BMP_pressure;BME280_temperature;BME280_humidity;BME280_pressure;Samples;Min_cycle;Max_cycle;Signal;HPM_P1;HPM_P2
2022/11/13 00:01:13;;;;;;;536.53;370.48;;;;;;;;;;5005756;28;20431;-76
2022/11/13 00:03:39;;;;;;;545.58;360.33;;;;;;;;;;5005202;28;20447;-76
2022/11/13 00:06:05;;;;;;;547.67;371.10;;;;;;;;;;5003916;28;20425;-76
2022/11/13 00:08:31;;;;;;;504.52;390.00;;;;;;;;;;5004196;28;21212;-76
2022/11/13 00:11:02;;;;;;;547.03;358.42;;;;;;;;;;5004461;28;20430;-76
2022/11/13 00:13:28;;;;;;;545.35;355.52;;;;;;;;;;5008631;28;20478;-75
2022/11/13 00:15:57;;;;;;;547.13;349.87;;;;;;;;;;5011375;28;20521;-76
2022/11/13 00:18:23;;;;;;;548.03;353.95;;;;;;;;;;5004082;28;20530;-76
2022/11/13 00:20:49;;;;;;;532.95;383.23;;;;;;;;;;5002423;28;20463;-76
2022/11/13 00:23:15;;;;;;;511.88;391.10;;;;;;;;;;5004979;28;21073;-76
2022/11/13 00:25:41;;;;;;;506.25;392.85;;;;;;;;;;5004474;28;21002;-79
2022/11/13 00:28:07;;;;;;;509.35;393.90;;;;;;;;;;5000914;28;20435;-76
2022/11/13 00:30:33;;;;;;;451.50;401.23;;;;;;;;;;5006105;28;21647;-76
2022/11/13 00:32:59;;;;;;;457.30;398.45;;;;;;;;;;5006997;28;20465;-76
2022/11/13 00:35:26;;;;;;;490.50;389.13;;;;;;;;;;5003397;28;20423;-76
2022/11/13 00:37:52;;;;;;;545.23;357.40;;;;;;;;;;4984329;28;20457;-76
2022/11/13 00:40:18;;;;;;;549.35;357.40;;;;;;;;;;5004139;28;20514;-76
2022/11/13 00:42:44;;;;;;;544.85;358.75;;;;;;;;;;5007466;28;20450;-77
2022/11/13 00:45:10;;;;;;;540.78;370.65;;;;;;;;;;5006791;28;20839;-76
2022/11/13 00:47:36;;;;;;;545.15;351.95;;;;;;;;;;5009210;28;20415;-76
2022/11/13 00:50:02;;;;;;;548.03;356.98;;;;;;;;;;5007555;28;20493;-76
2022/11/13 00:52:28;;;;;;;547.15;354.23;;;;;;;;;;4989872;28;20449;-76
2022/11/13 00:54:54;;;;;;;548.00;357.20;;;;;;;;;;5012239;28;20541;-76
2022/11/13 00:57:20;;;;;;;546.97;355.83;;;;;;;;;;5014194;28;20427;-76
2022/11/13 00:59:46;;;;;;;549.05;360.73;;;;;;;;;;5012752;28;20425;-76
2022/11/13 01:02:14;;;;;;;559.80;379.23;;;;;;;;;;5008003;28;20778;-76
2022/11/13 01:04:40;;;;;;;548.83;361.27;;;;;;;;;;4992771;28;20957;-76
2022/11/13 01:07:06;;;;;;;550.97;366.63;;;;;;;;;;5007740;28;20427;-76
2022/11/13 01:09:32;;;;;;;548.05;361.58;;;;;;;;;;4993022;28;20435;-76
2022/11/13 01:11:58;;;;;;;549.22;364.92;;;;;;;;;;5012764;28;20423;-76
2022/11/13 01:14:24;;;;;;;549.20;364.00;;;;;;;;;;4992562;28;21008;-76
2022/11/13 01:16:50;;;;;;;548.27;362.73;;;;;;;;;;5012718;28;20434;-76
2022/11/13 01:19:16;;;;;;;548.72;364.38;;;;;;;;;;5010760;28;20885;-77
2022/11/13 01:21:42;;;;;;;548.80;363.50;;;;;;;;;;5012455;28;20431;-76
2022/11/13 01:24:08;;;;;;;548.60;364.57;;;;;;;;;;5009650;28;20527;-76
2022/11/13 01:26:34;;;;;;;548.08;363.40;;;;;;;;;;5013372;28;20410;-76
2022/11/13 01:29:00;;;;;;;549.03;365.48;;;;;;;;;;5012724;28;20788;-76
2022/11/13 01:31:31;;;;;;;547.72;365.80;;;;;;;;;;5012096;28;21272;-76
2022/11/13 01:33:57;;;;;;;550.75;369.83;;;;;;;;;;5011770;28;20536;-76
2022/11/13 01:36:25;;;;;;;549.95;369.38;;;;;;;;;;4991141;28;20833;-76
2022/11/13 01:38:52;;;;;;;549.43;369.13;;;;;;;;;;5010303;28;21081;-76
2022/11/13 01:44:44;;;;;;;547.78;363.33;;;;;;;;;;5007827;28;21177;-77
2022/11/13 01:50:05;;;;;;;549.60;366.85;;;;;;;;;;5011678;28;20425;-76
2022/11/13 01:52:33;;;;;;;548.47;367.05;;;;;;;;;;5012417;28;20873;-77
2022/11/13 01:55:04;;;;;;;550.03;368.15;;;;;;;;;;4991636;28;20995;-76
2022/11/13 01:57:30;;;;;;;549.88;369.20;;;;;;;;;;5012291;28;20419;-77
2022/11/13 01:59:58;;;;;;;551.65;374.63;;;;;;;;;;5011326;28;20410;-77
2022/11/13 02:02:24;;;;;;;549.80;371.15;;;;;;;;;;5010604;28;20470;-76
2022/11/13 02:04:51;;;;;;;550.50;372.35;;;;;;;;;;5010269;28;20427;-77
2022/11/13 02:07:18;;;;;;;551.15;372.95;;;;;;;;;;5010493;28;20419;-77
2022/11/13 02:09:46;;;;;;;550.53;372.65;;;;;;;;;;5010044;28;20439;-76
2022/11/13 02:12:18;;;;;;;548.42;369.90;;;;;;;;;;5011705;28;20446;-76
2022/11/13 02:14:45;;;;;;;548.47;369.95;;;;;;;;;;5011513;28;20438;-76
2022/11/13 02:17:19;;;;;;;550.38;373.58;;;;;;;;;;5011091;28;20435;-76
2022/11/13 02:19:48;;;;;;;552.17;378.15;;;;;;;;;;5011428;28;20493;-77
2022/11/13 02:22:33;;;;;;;553.63;383.58;;;;;;;;;;5008798;28;20423;-76
2022/11/13 02:25:00;;;;;;;551.30;376.30;;;;;;;;;;4989873;28;21380;-77
2022/11/13 02:27:29;;;;;;;552.75;383.98;;;;;;;;;;4992036;28;20446;-77
2022/11/13 02:29:55;;;;;;;552.13;381.33;;;;;;;;;;5010056;28;20446;-76
2022/11/13 02:32:21;;;;;;;552.33;381.20;;;;;;;;;;5010571;28;20458;-77
2022/11/13 02:34:47;;;;;;;552.80;381.60;;;;;;;;;;5010309;28;21217;-76
2022/11/13 02:37:13;;;;;;;553.00;384.08;;;;;;;;;;4991110;28;20427;-77
2022/11/13 02:39:39;;;;;;;551.45;377.95;;;;;;;;;;5009346;28;20419;-77
2022/11/13 02:42:05;;;;;;;551.72;379.35;;;;;;;;;;5007272;28;20423;-77
2022/11/13 02:44:31;;;;;;;551.70;379.33;;;;;;;;;;5006346;28;20415;-77
2022/11/13 02:46:57;;;;;;;552.15;384.02;;;;;;;;;;5007533;28;20896;-77
2022/11/13 02:49:23;;;;;;;551.35;379.70;;;;;;;;;;5009094;28;20426;-77
2022/11/13 02:51:49;;;;;;;551.43;381.03;;;;;;;;;;5011715;28;20521;-77
2022/11/13 02:54:15;;;;;;;551.42;383.73;;;;;;;;;;5009190;28;20466;-77
2022/11/13 02:56:41;;;;;;;551.00;380.33;;;;;;;;;;4992431;28;20423;-77
2022/11/13 02:59:07;;;;;;;552.60;382.80;;;;;;;;;;5010473;28;20435;-77
2022/11/13 03:01:33;;;;;;;551.80;382.02;;;;;;;;;;5010636;28;21026;-76
2022/11/13 03:04:00;;;;;;;551.70;381.30;;;;;;;;;;5009756;28;20431;-77
2022/11/13 03:06:26;;;;;;;551.33;380.73;;;;;;;;;;5009542;28;20496;-77
2022/11/13 03:08:52;;;;;;;552.08;383.00;;;;;;;;;;5010794;28;20455;-77
2022/11/13 03:11:18;;;;;;;551.53;379.33;;;;;;;;;;4991860;28;20427;-76
2022/11/13 03:13:44;;;;;;;549.13;374.85;;;;;;;;;;5010011;28;20438;-76
2022/11/13 03:16:12;;;;;;;550.17;375.20;;;;;;;;;;5010207;28;20531;-77
2022/11/13 03:18:38;;;;;;;551.20;378.77;;;;;;;;;;5010682;28;20497;-77
2022/11/13 03:21:08;;;;;;;552.00;378.90;;;;;;;;;;5010386;28;20427;-77
2022/11/13 03:23:34;;;;;;;550.72;378.65;;;;;;;;;;5011166;28;20442;-77
2022/11/13 03:26:04;;;;;;;551.60;381.27;;;;;;;;;;5009153;28;20784;-77
2022/11/13 03:28:30;;;;;;;552.20;382.17;;;;;;;;;;5011013;28;20461;-77
2022/11/13 03:30:57;;;;;;;552.55;387.40;;;;;;;;;;5008888;28;21425;-77
2022/11/13 03:33:23;;;;;;;553.20;386.23;;;;;;;;;;5011396;28;20977;-77
2022/11/13 03:35:49;;;;;;;554.58;390.58;;;;;;;;;;4984728;28;20461;-77
2022/11/13 03:38:15;;;;;;;553.38;386.75;;;;;;;;;;5005319;28;20446;-76
2022/11/13 03:40:41;;;;;;;554.05;390.83;;;;;;;;;;5005575;28;20447;-77
2022/11/13 03:43:07;;;;;;;552.15;382.17;;;;;;;;;;5010431;28;22243;-77
2022/11/13 03:45:33;;;;;;;553.30;382.92;;;;;;;;;;5004833;28;20522;-76
2022/11/13 03:47:59;;;;;;;553.20;384.70;;;;;;;;;;5007823;28;20485;-76
2022/11/13 03:50:25;;;;;;;551.38;382.42;;;;;;;;;;4990916;28;20964;-76
2022/11/13 03:52:52;;;;;;;553.83;383.50;;;;;;;;;;5011422;28;20427;-77
2022/11/13 03:55:18;;;;;;;551.67;380.27;;;;;;;;;;5011217;28;20455;-77
2022/11/13 03:57:46;;;;;;;550.92;379.55;;;;;;;;;;4992520;28;20490;-77
2022/11/13 04:00:12;;;;;;;551.38;379.80;;;;;;;;;;4987307;28;20524;-76
2022/11/13 04:02:38;;;;;;;551.45;380.75;;;;;;;;;;4991477;28;20565;-77
2022/11/13 04:05:04;;;;;;;551.45;382.35;;;;;;;;;;5010495;28;21159;-76
2022/11/13 04:07:30;;;;;;;550.15;377.95;;;;;;;;;;5010488;28;20426;-77
2022/11/13 04:09:56;;;;;;;554.08;384.58;;;;;;;;;;5008458;28;20435;-77
2022/11/13 04:12:22;;;;;;;551.55;380.95;;;;;;;;;;5008545;28;20439;-77
2022/11/13 04:14:48;;;;;;;551.37;380.27;;;;;;;;;;5010273;28;20503;-77
2022/11/13 04:17:14;;;;;;;552.65;383.10;;;;;;;;;;5010152;28;20851;-76
2022/11/13 04:19:40;;;;;;;552.83;384.50;;;;;;;;;;4989886;28;20450;-77
2022/11/13 04:22:06;;;;;;;551.60;383.45;;;;;;;;;;5010981;28;20775;-77
2022/11/13 04:24:32;;;;;;;550.95;382.13;;;;;;;;;;5011021;28;20436;-77
2022/11/13 04:26:58;;;;;;;552.40;383.35;;;;;;;;;;5010216;28;20505;-76
2022/11/13 04:29:24;;;;;;;552.63;386.02;;;;;;;;;;5013109;28;20505;-76
2022/11/13 04:31:50;;;;;;;552.22;384.42;;;;;;;;;;5013698;28;20497;-76
2022/11/13 04:34:16;;;;;;;552.88;386.23;;;;;;;;;;5012640;28;20437;-76
2022/11/13 04:36:42;;;;;;;552.45;384.90;;;;;;;;;;5010631;28;20941;-77
2022/11/13 04:39:08;;;;;;;553.45;389.05;;;;;;;;;;5013600;28;20520;-76
2022/11/13 04:44:19;;;;;;;551.90;382.15;;;;;;;;;;5012328;28;20465;-77
2022/11/13 04:46:45;;;;;;;552.05;384.52;;;;;;;;;;5012660;28;20820;-77
2022/11/13 04:49:11;;;;;;;551.47;385.23;;;;;;;;;;5012325;28;20443;-77
2022/11/13 04:51:37;;;;;;;552.10;385.80;;;;;;;;;;5012089;28;20572;-76
2022/11/13 04:54:03;;;;;;;553.13;387.30;;;;;;;;;;5009483;28;20427;-77
2022/11/13 04:56:29;;;;;;;551.58;381.92;;;;;;;;;;5013024;28;20422;-76
2022/11/13 04:58:55;;;;;;;551.30;384.03;;;;;;;;;;5012957;28;20547;-76
2022/11/13 05:01:21;;;;;;;551.20;383.58;;;;;;;;;;4988804;28;20431;-76
2022/11/13 05:03:47;;;;;;;549.83;378.65;;;;;;;;;;4992717;28;20435;-76
2022/11/13 05:06:13;;;;;;;550.53;378.88;;;;;;;;;;5013187;28;20862;-76
2022/11/13 05:08:39;;;;;;;552.17;379.92;;;;;;;;;;5010816;28;20777;-76
2022/11/13 05:11:05;;;;;;;553.17;382.20;;;;;;;;;;5011625;28;20488;-76
2022/11/13 05:13:32;;;;;;;550.58;379.30;;;;;;;;;;4992866;28;20483;-76
2022/11/13 05:15:59;;;;;;;550.88;380.77;;;;;;;;;;4991803;28;20778;-76
2022/11/13 05:18:26;;;;;;;550.38;377.95;;;;;;;;;;4993426;28;20642;-76
2022/11/13 05:20:52;;;;;;;550.75;381.60;;;;;;;;;;4993339;28;20789;-76
2022/11/13 05:23:18;;;;;;;551.42;379.73;;;;;;;;;;5012104;28;20447;-76
2022/11/13 05:25:44;;;;;;;553.08;382.83;;;;;;;;;;4993302;28;20443;-76
2022/11/13 05:28:10;;;;;;;550.05;378.40;;;;;;;;;;4994416;28;20435;-76
2022/11/13 05:30:36;;;;;;;550.50;379.15;;;;;;;;;;5010049;28;20422;-76
2022/11/13 05:33:02;;;;;;;551.30;379.38;;;;;;;;;;5011783;28;20434;-77
2022/11/13 05:35:28;;;;;;;550.30;375.70;;;;;;;;;;5014021;28;20423;-77
2022/11/13 05:37:54;;;;;;;550.45;375.30;;;;;;;;;;5010985;28;20478;-76
2022/11/13 05:40:20;;;;;;;551.03;377.05;;;;;;;;;;5011486;28;20470;-77
2022/11/13 05:42:46;;;;;;;548.77;375.20;;;;;;;;;;5010926;28;20492;-76
2022/11/13 05:45:12;;;;;;;550.13;374.75;;;;;;;;;;5011000;28;20415;-77
2022/11/13 05:47:38;;;;;;;549.97;374.17;;;;;;;;;;5011969;28;20969;-77
2022/11/13 05:50:04;;;;;;;548.80;372.92;;;;;;;;;;4992873;28;20461;-76
2022/11/13 05:52:30;;;;;;;550.17;372.67;;;;;;;;;;5009868;28;20457;-77
2022/11/13 05:54:56;;;;;;;548.85;371.20;;;;;;;;;;4992098;28;20874;-76
2022/11/13 05:57:22;;;;;;;547.57;368.77;;;;;;;;;;5012800;28;20476;-77
2022/11/13 05:59:48;;;;;;;549.55;371.45;;;;;;;;;;5008887;28;20427;-76
2022/11/13 06:02:14;;;;;;;548.17;369.85;;;;;;;;;;5008466;28;21197;-76
2022/11/13 06:04:40;;;;;;;550.00;371.63;;;;;;;;;;5010730;28;20449;-77
2022/11/13 06:07:06;;;;;;;548.03;369.10;;;;;;;;;;5011456;28;20415;-76
2022/11/13 06:09:32;;;;;;;548.85;370.63;;;;;;;;;;4993387;28;20423;-76
2022/11/13 06:11:58;;;;;;;548.17;368.02;;;;;;;;;;5012008;28;20508;-77
2022/11/13 06:14:24;;;;;;;548.17;367.45;;;;;;;;;;5011349;28;20427;-77
2022/11/13 06:16:50;;;;;;;546.83;365.35;;;;;;;;;;5009256;28;20434;-76
2022/11/13 06:19:16;;;;;;;547.67;365.35;;;;;;;;;;5012544;28;20877;-77
2022/11/13 06:21:42;;;;;;;549.22;367.13;;;;;;;;;;5010423;28;20454;-76
2022/11/13 06:24:11;;;;;;;547.67;368.00;;;;;;;;;;4992674;28;20732;-76
2022/11/13 06:26:37;;;;;;;549.33;366.15;;;;;;;;;;5009500;28;20591;-77
2022/11/13 06:29:04;;;;;;;545.88;360.55;;;;;;;;;;4992510;28;20436;-77
2022/11/13 06:31:32;;;;;;;546.13;363.05;;;;;;;;;;5010050;28;20465;-76
2022/11/13 06:33:58;;;;;;;549.70;366.20;;;;;;;;;;5008518;28;20445;-77
2022/11/13 06:36:26;;;;;;;547.35;362.27;;;;;;;;;;5005269;28;20430;-76
2022/11/13 06:38:52;;;;;;;546.72;359.25;;;;;;;;;;4988080;28;20439;-76
2022/11/13 06:41:23;;;;;;;545.90;358.05;;;;;;;;;;5009996;28;21012;-77
2022/11/13 06:43:49;;;;;;;546.40;358.95;;;;;;;;;;4990290;28;20438;-77
2022/11/13 06:46:17;;;;;;;545.97;357.95;;;;;;;;;;5010691;28;20470;-77
2022/11/13 06:48:43;;;;;;;546.13;357.98;;;;;;;;;;5009112;28;20439;-76
2022/11/13 06:51:12;;;;;;;548.42;362.65;;;;;;;;;;5011272;28;20435;-76
2022/11/13 06:53:38;;;;;;;545.40;356.15;;;;;;;;;;5008850;28;20971;-76
2022/11/13 06:56:05;;;;;;;546.35;357.90;;;;;;;;;;5010252;28;20437;-76
2022/11/13 06:58:32;;;;;;;545.10;354.55;;;;;;;;;;4990188;28;20449;-76
2022/11/13 07:01:04;;;;;;;545.33;356.15;;;;;;;;;;5009696;28;20514;-76
2022/11/13 07:03:30;;;;;;;547.25;358.98;;;;;;;;;;5006025;28;20500;-76
2022/11/13 07:05:56;;;;;;;545.65;352.50;;;;;;;;;;5009658;28;21075;-76
2022/11/13 07:08:22;;;;;;;545.23;351.40;;;;;;;;;;5009858;28;20524;-76
2022/11/13 07:10:54;;;;;;;545.83;354.80;;;;;;;;;;4990400;28;21139;-76
2022/11/13 07:13:21;;;;;;;547.33;357.45;;;;;;;;;;5005908;28;20438;-76
2022/11/13 07:15:47;;;;;;;546.25;354.58;;;;;;;;;;4995396;28;20518;-77
2022/11/13 07:18:13;;;;;;;546.78;357.63;;;;;;;;;;4989998;28;20574;-78
2022/11/13 07:20:39;;;;;;;546.38;356.65;;;;;;;;;;5008294;28;20458;-77
2022/11/13 07:23:05;;;;;;;547.05;356.65;;;;;;;;;;5011065;28;20431;-77
2022/11/13 07:25:31;;;;;;;545.75;352.92;;;;;;;;;;5008907;28;20483;-77
2022/11/13 07:27:58;;;;;;;546.70;353.60;;;;;;;;;;5011599;28;20436;-76
2022/11/13 07:30:40;;;;;;;546.80;356.27;;;;;;;;;;5009197;28;20431;-76
2022/11/13 07:33:07;;;;;;;548.80;359.60;;;;;;;;;;4990470;28;20423;-76
2022/11/13 07:35:33;;;;;;;547.57;357.83;;;;;;;;;;5006137;28;20461;-77
2022/11/13 07:37:59;;;;;;;546.33;357.25;;;;;;;;;;5009274;28;20427;-76
2022/11/13 07:40:25;;;;;;;547.92;360.80;;;;;;;;;;5004545;28;20982;-77
2022/11/13 07:43:01;;;;;;;550.17;364.10;;;;;;;;;;5007323;28;20522;-76
2022/11/13 07:45:27;;;;;;;547.42;358.88;;;;;;;;;;5010261;28;20925;-77
2022/11/13 07:47:57;;;;;;;549.60;366.80;;;;;;;;;;4991003;28;21010;-76
2022/11/13 07:50:23;;;;;;;549.58;369.33;;;;;;;;;;5011339;28;20434;-77
2022/11/13 07:52:54;;;;;;;549.20;372.98;;;;;;;;;;4990939;28;20513;-77
2022/11/13 07:55:20;;;;;;;550.28;374.50;;;;;;;;;;5011812;28;20450;-76
2022/11/13 07:57:46;;;;;;;550.70;375.73;;;;;;;;;;4993259;28;20514;-76
2022/11/13 08:00:12;;;;;;;548.92;369.80;;;;;;;;;;4990286;28;20425;-75
2022/11/13 08:02:38;;;;;;;549.58;370.67;;;;;;;;;;4991826;28;20434;-76
2022/11/13 08:05:04;;;;;;;550.80;377.70;;;;;;;;;;5012948;28;20750;-76
2022/11/13 08:07:30;;;;;;;549.38;370.83;;;;;;;;;;5011933;28;21117;-76
2022/11/13 08:09:56;;;;;;;546.47;369.05;;;;;;;;;;5013434;28;21758;-76
2022/11/13 08:12:22;;;;;;;550.65;373.20;;;;;;;;;;5013829;28;20457;-76
2022/11/13 08:14:49;;;;;;;550.13;374.55;;;;;;;;;;4996671;28;20431;-76
2022/11/13 08:17:15;;;;;;;551.60;382.67;;;;;;;;;;4996129;28;20441;-76
2022/11/13 08:19:41;;;;;;;553.65;392.50;;;;;;;;;;5015558;28;20433;-76
2022/11/13 08:22:07;;;;;;;557.70;412.42;;;;;;;;;;5013945;28;20445;-77
2022/11/13 08:24:33;;;;;;;557.65;425.50;;;;;;;;;;5014852;28;20431;-75
2022/11/13 08:26:59;;;;;;;563.80;438.15;;;;;;;;;;5014446;28;20923;-75
2022/11/13 08:29:25;;;;;;;563.90;439.40;;;;;;;;;;4996146;28;20462;-76
2022/11/13 08:31:51;;;;;;;565.70;442.63;;;;;;;;;;5014231;28;20512;-76
2022/11/13 08:34:17;;;;;;;560.55;433.85;;;;;;;;;;5014465;28;20521;-76
2022/11/13 08:36:43;;;;;;;562.75;435.58;;;;;;;;;;5011138;28;20844;-76
2022/11/13 08:39:09;;;;;;;564.78;437.33;;;;;;;;;;5011973;28;20459;-76
2022/11/13 08:41:35;;;;;;;565.22;439.83;;;;;;;;;;4993435;28;20901;-76
2022/11/13 08:44:01;;;;;;;561.83;435.67;;;;;;;;;;4996238;28;20438;-76
2022/11/13 08:46:27;;;;;;;564.53;441.67;;;;;;;;;;5013010;28;20427;-76
2022/11/13 08:48:53;;;;;;;565.90;450.38;;;;;;;;;;4992486;28;20434;-76
2022/11/13 08:51:20;;;;;;;573.33;457.23;;;;;;;;;;5013779;28;21121;-77
2022/11/13 08:53:46;;;;;;;568.33;465.88;;;;;;;;;;4993563;28;20438;-76
2022/11/13 08:56:12;;;;;;;574.57;491.97;;;;;;;;;;5011933;28;20450;-76
2022/11/13 08:58:38;;;;;;;576.40;501.38;;;;;;;;;;4993932;28;20431;-77
2022/11/13 09:01:04;;;;;;;574.65;499.55;;;;;;;;;;5013137;28;21062;-77
2022/11/13 09:03:30;;;;;;;0.10;0.10;;;;;;;;;;5010677;28;20435;-77
2022/11/13 09:05:56;;;;;;;0.20;0.20;;;;;;;;;;5010602;28;20415;-76
2022/11/13 09:08:22;;;;;;;0.13;0.13;;;;;;;;;;4994622;28;20854;-77
2022/11/13 09:10:48;;;;;;;0.20;0.20;;;;;;;;;;5008392;28;20484;-75
2022/11/13 09:13:14;;;;;;;0.07;0.07;;;;;;;;;;5007813;28;20427;-78
2022/11/13 09:15:41;;;;;;;0.30;0.30;;;;;;;;;;5009840;28;20492;-77
2022/11/13 09:18:09;;;;;;;0.20;0.20;;;;;;;;;;5013850;28;20441;-77
2022/11/13 09:20:35;;;;;;;0.40;0.40;;;;;;;;;;5013900;28;22350;-77
2022/11/13 09:23:05;;;;;;;0.45;0.25;;;;;;;;;;4996299;28;20442;-77
2022/11/13 09:25:34;;;;;;;667.50;601.42;;;;;;;;;;5011972;28;20487;-77
2022/11/13 09:28:00;;;;;;;665.50;599.30;;;;;;;;;;5012641;28;20430;-77
2022/11/13 09:30:27;;;;;;;696.83;629.83;;;;;;;;;;4993550;28;20661;-77
2022/11/13 09:32:55;;;;;;;740.75;672.47;;;;;;;;;;4993909;28;21859;-77
2022/11/13 09:35:32;;;;;;;776.50;707.28;;;;;;;;;;5011028;28;20443;-79
2022/11/13 09:37:59;;;;;;;807.20;736.72;;;;;;;;;;4994205;28;20435;-77
2022/11/13 09:40:28;;;;;;;809.88;739.63;;;;;;;;;;5010826;28;20849;-78
2022/11/13 09:42:54;;;;;;;801.50;731.40;;;;;;;;;;4994739;28;20439;-77
2022/11/13 09:45:20;;;;;;;788.47;718.88;;;;;;;;;;5013041;28;20438;-77
2022/11/13 09:47:48;;;;;;;767.33;698.25;;;;;;;;;;5012681;28;20419;-76
2022/11/13 09:50:22;;;;;;;747.80;679.15;;;;;;;;;;5010920;28;20961;-77
2022/11/13 09:52:48;;;;;;;738.25;669.95;;;;;;;;;;4995895;28;20446;-76
2022/11/13 09:55:19;;;;;;;726.08;658.15;;;;;;;;;;5012902;28;20489;-76
2022/11/13 09:57:45;;;;;;;717.00;649.30;;;;;;;;;;4995559;28;20493;-75
2022/11/13 10:00:12;;;;;;;709.47;642.00;;;;;;;;;;4991531;28;20493;-75
2022/11/13 10:02:47;;;;;;;708.70;641.10;;;;;;;;;;5006097;28;20435;-76
2022/11/13 10:05:13;;;;;;;697.63;630.33;;;;;;;;;;5007400;28;20434;-76
2022/11/13 10:07:39;;;;;;;693.90;626.85;;;;;;;;;;5007106;28;20427;-76
2022/11/13 10:10:17;;;;;;;697.83;630.65;;;;;;;;;;5009114;28;21314;-76
2022/11/13 10:12:44;;;;;;;687.17;620.42;;;;;;;;;;4990528;28;20469;-76
2022/11/13 10:15:10;;;;;;;691.08;624.08;;;;;;;;;;4987669;28;20751;-78
2022/11/13 10:17:49;;;;;;;688.58;621.70;;;;;;;;;;5007389;28;20462;-75
2022/11/13 10:20:18;;;;;;;691.10;624.20;;;;;;;;;;5006338;28;20446;-76
2022/11/13 10:22:49;;;;;;;678.13;611.72;;;;;;;;;;4986457;28;20439;-76
2022/11/13 10:25:16;;;;;;;688.58;621.88;;;;;;;;;;5005802;28;20859;-76
2022/11/13 10:27:43;;;;;;;694.47;627.47;;;;;;;;;;5005601;28;20447;-76
2022/11/13 10:30:14;;;;;;;691.33;624.40;;;;;;;;;;4985241;28;20439;-75
2022/11/13 10:32:40;;;;;;;691.72;624.85;;;;;;;;;;5004402;28;20887;-75
2022/11/13 10:35:06;;;;;;;692.70;625.80;;;;;;;;;;5004879;28;20466;-75
2022/11/13 10:37:32;;;;;;;698.92;631.83;;;;;;;;;;5006203;28;20431;-75
2022/11/13 10:39:58;;;;;;;691.80;624.95;;;;;;;;;;4988310;28;20601;-75
2022/11/13 10:42:29;;;;;;;697.60;630.60;;;;;;;;;;4990343;28;20565;-76
2022/11/13 10:44:57;;;;;;;699.80;632.67;;;;;;;;;;5011081;28;20792;-76
2022/11/13 10:47:23;;;;;;;698.15;631.20;;;;;;;;;;5013567;28;20982;-75
2022/11/13 10:49:50;;;;;;;707.72;640.28;;;;;;;;;;5011598;28;20759;-74
2022/11/13 10:52:26;;;;;;;696.80;629.75;;;;;;;;;;5005649;28;20955;-75
2022/11/13 10:55:13;;;;;;;701.05;633.80;;;;;;;;;;5005799;28;21111;-75
2022/11/13 10:57:40;;;;;;;704.38;637.13;;;;;;;;;;5006087;28;20512;-74
2022/11/13 11:00:40;;;;;;;704.67;637.35;;;;;;;;;;5011232;28;21356;-75
2022/11/13 11:03:13;;;;;;;706.65;639.25;;;;;;;;;;4974315;28;21078;-75
2022/11/13 11:05:39;;;;;;;702.08;634.90;;;;;;;;;;5011260;28;20458;-75
2022/11/13 11:08:09;;;;;;;708.13;640.80;;;;;;;;;;5009488;28;20956;-74
2022/11/13 11:12:14;;;;;;;702.08;635.08;;;;;;;;;;4989231;28;20438;-75
2022/11/13 11:13:23;;;;;;;711.17;643.75;;;;;;;;;;5008299;28;20983;-75
2022/11/13 11:15:53;;;;;;;708.65;641.05;;;;;;;;;;4988084;28;21134;-75
2022/11/13 11:18:28;;;;;;;707.20;639.90;;;;;;;;;;4992231;28;20532;-75
2022/11/13 11:20:57;;;;;;;704.28;637.08;;;;;;;;;;5010151;28;20488;-74
2022/11/13 11:23:42;;;;;;;706.28;638.97;;;;;;;;;;4991557;28;20773;-75
2022/11/13 11:26:14;;;;;;;706.20;638.95;;;;;;;;;;5009021;28;20995;-75
2022/11/13 11:28:59;;;;;;;705.40;638.10;;;;;;;;;;5011560;28;21082;-74
2022/11/13 11:31:32;;;;;;;698.70;631.75;;;;;;;;;;5010942;28;20427;-74
2022/11/13 11:34:12;;;;;;;700.05;633.03;;;;;;;;;;5010412;28;20430;-75
2022/11/13 11:36:46;;;;;;;703.08;635.88;;;;;;;;;;5006143;28;20457;-74
2022/11/13 11:39:18;;;;;;;703.30;636.10;;;;;;;;;;5008188;28;20431;-74
2022/11/13 11:41:49;;;;;;;704.00;636.90;;;;;;;;;;5010029;28;20439;-74
2022/11/13 11:44:21;;;;;;;700.13;633.10;;;;;;;;;;5007969;28;20522;-75
2022/11/13 11:46:47;;;;;;;701.78;634.67;;;;;;;;;;4990100;28;20550;-75
2022/11/13 11:49:13;;;;;;;706.92;639.60;;;;;;;;;;4990508;28;20426;-75
2022/11/13 11:51:47;;;;;;;704.78;637.67;;;;;;;;;;5011064;28;20465;-75
2022/11/13 11:54:13;;;;;;;705.15;638.05;;;;;;;;;;5009780;28;20532;-75
2022/11/13 11:56:42;;;;;;;711.10;643.70;;;;;;;;;;4990862;28;20430;-75
2022/11/13 11:59:25;;;;;;;710.05;642.72;;;;;;;;;;4974395;28;20435;-75
2022/11/13 12:01:54;;;;;;;708.55;641.42;;;;;;;;;;5008212;28;20517;-75
2022/11/13 12:04:27;;;;;;;710.72;643.42;;;;;;;;;;4989245;28;20506;-76
2022/11/13 12:06:53;;;;;;;714.65;647.35;;;;;;;;;;5012823;28;20806;-76
2022/11/13 12:09:27;;;;;;;711.45;644.15;;;;;;;;;;5009251;28;20419;-77
2022/11/13 12:11:59;;;;;;;713.05;645.67;;;;;;;;;;5009655;28;20906;-77
2022/11/13 12:14:34;;;;;;;712.30;644.97;;;;;;;;;;5008376;28;20891;-77
2022/11/13 12:17:12;;;;;;;713.42;646.13;;;;;;;;;;5009964;28;20433;-77
2022/11/13 12:19:58;;;;;;;706.28;639.17;;;;;;;;;;5009475;28;20418;-77
2022/11/13 12:22:27;;;;;;;708.38;641.28;;;;;;;;;;5008866;28;20435;-76
2022/11/13 12:25:00;;;;;;;704.63;637.60;;;;;;;;;;5007104;28;20434;-75
2022/11/13 12:27:32;;;;;;;706.22;638.95;;;;;;;;;;5003869;28;20444;-75
2022/11/13 12:30:16;;;;;;;702.00;635.05;;;;;;;;;;5005258;28;20422;-76
2022/11/13 12:33:01;;;;;;;707.42;640.13;;;;;;;;;;5009705;28;21233;-75
2022/11/13 12:35:28;;;;;;;707.05;640.03;;;;;;;;;;5008093;28;21214;-75
2022/11/13 12:37:58;;;;;;;712.33;645.05;;;;;;;;;;5011139;28;20431;-75
2022/11/13 12:40:29;;;;;;;709.35;642.05;;;;;;;;;;5010343;28;20438;-75
2022/11/13 12:43:01;;;;;;;711.92;644.42;;;;;;;;;;5007873;28;21024;-75
2022/11/13 12:45:36;;;;;;;708.83;641.55;;;;;;;;;;5010280;28;20933;-75
2022/11/13 12:48:10;;;;;;;707.33;640.22;;;;;;;;;;5009311;28;20439;-75
2022/11/13 12:50:36;;;;;;;716.63;649.13;;;;;;;;;;5011593;28;20434;-75
2022/11/13 12:53:06;;;;;;;716.63;649.15;;;;;;;;;;5012402;28;20478;-75
2022/11/13 12:55:34;;;;;;;709.85;642.65;;;;;;;;;;5011149;28;20435;-74
2022/11/13 12:58:29;;;;;;;712.40;645.20;;;;;;;;;;5013269;28;21092;-75
2022/11/13 13:00:55;;;;;;;709.25;642.05;;;;;;;;;;4997107;28;20493;-75
2022/11/13 13:03:57;;;;;;;712.37;644.93;;;;;;;;;;4993782;28;20561;-76
2022/11/13 13:06:35;;;;;;;712.58;645.08;;;;;;;;;;4926236;28;20900;-76
2022/11/13 13:09:20;;;;;;;711.42;644.13;;;;;;;;;;4981850;28;20437;-75
2022/11/13 13:12:01;;;;;;;711.67;644.38;;;;;;;;;;4993271;28;20504;-77
2022/11/13 13:14:46;;;;;;;707.03;639.83;;;;;;;;;;5013134;28;20423;-77
2022/11/13 13:17:15;;;;;;;709.08;641.95;;;;;;;;;;5012321;28;20488;-75
2022/11/13 13:19:41;;;;;;;708.63;641.33;;;;;;;;;;5004566;28;20434;-76
2022/11/13 13:22:11;;;;;;;698.50;631.80;;;;;;;;;;4993355;28;20571;-76
2022/11/13 13:24:38;;;;;;;705.55;638.60;;;;;;;;;;4994435;28;20423;-76
2022/11/13 13:27:21;;;;;;;703.00;636.05;;;;;;;;;;4993843;28;20785;-76
2022/11/13 13:29:47;;;;;;;702.33;635.42;;;;;;;;;;4977757;28;20443;-76
2022/11/13 13:32:22;;;;;;;701.35;634.45;;;;;;;;;;5014161;28;20848;-75
2022/11/13 13:34:48;;;;;;;706.45;639.40;;;;;;;;;;5012318;28;20423;-76
2022/11/13 13:37:19;;;;;;;702.22;635.22;;;;;;;;;;5014673;28;20435;-75
2022/11/13 13:39:51;;;;;;;702.75;635.90;;;;;;;;;;5012846;28;20921;-76
2022/11/13 13:42:20;;;;;;;698.67;631.87;;;;;;;;;;5016606;28;20596;-76
2022/11/13 13:45:04;;;;;;;705.38;638.28;;;;;;;;;;5014351;28;20450;-75
2022/11/13 13:47:39;;;;;;;703.25;636.30;;;;;;;;;;5011019;28;20423;-76
2022/11/13 13:50:07;;;;;;;693.67;627.08;;;;;;;;;;5014047;28;20445;-76
2022/11/13 13:52:34;;;;;;;696.80;630.10;;;;;;;;;;5013295;28;21137;-76
2022/11/13 13:55:02;;;;;;;696.45;629.75;;;;;;;;;;5014167;28;21319;-76
2022/11/13 13:57:29;;;;;;;693.28;626.78;;;;;;;;;;4995703;28;21759;-76
2022/11/13 13:59:55;;;;;;;695.75;628.95;;;;;;;;;;5011130;28;20565;-76
2022/11/13 14:02:22;;;;;;;703.25;636.25;;;;;;;;;;5012491;28;20572;-76
2022/11/13 14:04:51;;;;;;;693.05;626.53;;;;;;;;;;5014182;28;20655;-76
2022/11/13 14:07:24;;;;;;;693.00;626.40;;;;;;;;;;5014874;28;20431;-76
2022/11/13 14:10:04;;;;;;;697.33;630.58;;;;;;;;;;5014400;28;20515;-76